Urb del Carmen, Puerto Rico
Current Conditions -  °F | °C
As of 2:45 PM on Sunday 23 Nov 2014 (Local Time) from TJIG Reporting Station
Scattered Clouds Scattered Clouds  
Wind Chill: 84°   Ceiling: Unl
Heat Index: 90°   Visibility: 10mi
Dew Point: 72°   Wind: 16mph
Humidity: 66%   Direction: 120°ESE
Pressure: 30"   Gusts: NA
Location:  18.0561°N, 66.5063°W
Report Text: TJIG 231845Z 12014KT 10SM SCT035 29/22 A3000 RMK RY09 IN USE ATIS I
Loading
Personal Weather Stations






























Interactive Weather Map New forecast layout! Learn more

10-Day Weather Forecast

Advertisements
Track Severe Weather on mobile